Andover, New Hampshire
Current Conditions -  °F | °C
As of 10:55 PM on Saturday 24 Jan 2015 (Local Time) from KLCI Reporting Station
Overcast Overcast  
Wind Chill: -6°   Ceiling: 2900
Heat Index: -1°   Visibility: 10mi
Dew Point: -6°   Wind: 9mph
Humidity: 69%   Direction: 260°W
Pressure: 29.22"   Gusts: NA
Location:  43.44°N, 71.82°W
Report Text: KLCI 250355Z AUTO 26008KT 10SM BKN029 OVC075 M01/M06 A2922 RMK AO1
Loading
Personal Weather Stations






























Interactive Weather Map New forecast layout! Learn more

10-Day Weather Forecast

Advertisements
Track Severe Weather on mobile